Time;durP1;ratioP1;P1;durP2;ratioP2;P2;SDS_P1;SDS_P2;PMS_P1;PMS_P2;Temp;Humidity;BMP_temperature;BMP_pressure;BME280_temperature;BME280_humidity;BME280_pressure;Samples;Min_cycle;Max_cycle;Signal;HPM_P1;HPM_P2
2022/09/26 00:01:43;;;;;;;4.53;4.17;;;;;;;12.07;100.00;96263.22;4914970;29;20207;-56
2022/09/26 00:04:18;;;;;;;3.57;3.37;;;;;;;12.08;100.00;96249.78;4932027;29;20185;-57
2022/09/26 00:06:45;;;;;;;3.87;3.67;;;;;;;12.09;100.00;96258.59;4940728;29;20176;-56
2022/09/26 00:09:12;;;;;;;3.83;3.53;;;;;;;12.07;100.00;96260.56;4933291;29;20204;-55
2022/09/26 00:11:39;;;;;;;3.70;3.40;;;;;;;12.06;100.00;96264.22;4925304;29;20614;-55
2022/09/26 00:14:09;;;;;;;4.20;3.80;;;;;;;12.03;100.00;96261.88;4910484;29;20299;-55
2022/09/26 00:16:35;;;;;;;6.43;3.60;;;;;;;12.00;100.00;96259.56;4908351;29;20634;-54
2022/09/26 00:19:03;;;;;;;3.33;3.13;;;;;;;11.93;100.00;96256.72;4908995;29;20228;-54
2022/09/26 00:21:31;;;;;;;4.60;3.70;;;;;;;11.91;100.00;96262.19;4908791;29;20696;-56
2022/09/26 00:23:59;;;;;;;5.23;3.70;;;;;;;11.91;100.00;96254.22;4908127;29;20239;-56
2022/09/26 00:26:26;;;;;;;3.80;3.50;;;;;;;11.89;100.00;96258.03;4908423;29;20626;-55
2022/09/26 00:28:53;;;;;;;3.53;3.30;;;;;;;11.87;100.00;96242.28;4908650;29;20239;-56
2022/09/26 00:31:22;;;;;;;4.50;3.23;;;;;;;11.86;100.00;96245.13;4918543;29;20272;-55
2022/09/26 00:33:49;;;;;;;3.47;3.27;;;;;;;11.90;100.00;96243.81;4927155;29;20207;-55
2022/09/26 00:36:16;;;;;;;3.40;3.10;;;;;;;11.88;100.00;96246.59;4922373;29;20299;-55
2022/09/26 00:38:44;;;;;;;3.43;3.23;;;;;;;11.80;100.00;96246.56;4913679;29;20235;-55
2022/09/26 00:41:11;;;;;;;3.50;3.30;;;;;;;11.80;100.00;96243.91;4907946;29;20205;-56
2022/09/26 00:43:40;;;;;;;3.20;3.00;;;;;;;11.79;100.00;96244.94;4908162;29;20640;-55
2022/09/26 00:46:17;;;;;;;3.70;3.40;;;;;;;11.82;100.00;96238.47;4907960;29;20208;-56
2022/09/26 00:48:45;;;;;;;3.80;3.60;;;;;;;11.80;100.00;96233.31;4907603;29;20592;-58
2022/09/26 00:51:12;;;;;;;3.90;3.53;;;;;;;11.77;100.00;96232.81;4908651;29;20307;-55
2022/09/26 00:53:42;;;;;;;3.30;3.10;;;;;;;11.78;100.00;96229.19;4907532;29;20302;-56
2022/09/26 00:56:14;;;;;;;3.93;3.57;;;;;;;11.78;100.00;96227.38;4907632;29;20295;-55
2022/09/26 00:58:44;;;;;;;4.00;3.60;;;;;;;11.75;100.00;96218.91;4908061;29;20228;-55
2022/09/26 01:01:11;;;;;;;3.83;3.53;;;;;;;11.76;100.00;96213.44;4907981;29;20220;-56
2022/09/26 01:03:39;;;;;;;3.53;3.23;;;;;;;11.78;100.00;96210.63;4891394;29;20209;-56
2022/09/26 01:06:06;;;;;;;3.80;3.50;;;;;;;11.74;100.00;96202.19;4907121;29;20212;-56
2022/09/26 01:08:39;;;;;;;3.83;3.63;;;;;;;11.71;100.00;96207.81;4907349;29;20284;-55
2022/09/26 01:11:06;;;;;;;4.30;3.73;;;;;;;11.68;100.00;96202.81;4908198;29;20275;-56
2022/09/26 01:13:36;;;;;;;3.93;3.63;;;;;;;11.68;100.00;96205.47;4907420;29;20243;-56
2022/09/26 01:16:03;;;;;;;3.93;3.63;;;;;;;11.65;100.00;96197.00;4907189;29;20204;-56
2022/09/26 01:18:29;;;;;;;4.00;3.70;;;;;;;11.57;100.00;96192.50;4907005;29;20228;-56
2022/09/26 01:21:01;;;;;;;4.03;3.73;;;;;;;11.51;100.00;96190.50;4907063;29;20641;-56
2022/09/26 01:24:04;;;;;;;3.83;3.63;;;;;;;11.45;100.00;96197.25;4907760;29;20304;-56
2022/09/26 01:26:56;;;;;;;3.57;3.37;;;;;;;11.43;100.00;96187.81;4907170;29;20338;-55
2022/09/26 01:30:01;;;;;;;4.10;3.80;;;;;;;11.40;100.00;96188.13;4903949;29;20737;-55
2022/09/26 01:32:50;;;;;;;3.50;3.20;;;;;;;11.35;100.00;96201.00;4906961;29;20204;-56
2022/09/26 01:35:26;;;;;;;3.30;3.10;;;;;;;11.33;100.00;96203.00;4907582;29;20239;-56
2022/09/26 01:38:00;;;;;;;3.93;3.50;;;;;;;11.25;100.00;96198.47;4907904;29;20307;-56
2022/09/26 01:40:31;;;;;;;4.23;3.90;;;;;;;11.30;100.00;96190.06;4906414;29;20306;-56
2022/09/26 01:43:06;;;;;;;4.07;3.77;;;;;;;11.22;100.00;96179.44;4907270;29;20295;-56
2022/09/26 01:45:40;;;;;;;4.03;3.60;;;;;;;11.19;100.00;96180.59;4906508;29;20322;-57
2022/09/26 01:48:12;;;;;;;3.60;3.40;;;;;;;11.21;100.00;96175.97;4906825;29;20278;-56
2022/09/26 01:50:43;;;;;;;3.70;3.50;;;;;;;11.20;100.00;96170.81;4906997;29;20203;-56
2022/09/26 01:53:12;;;;;;;4.00;3.70;;;;;;;11.19;100.00;96177.13;4907964;29;20343;-55
2022/09/26 01:55:41;;;;;;;3.83;3.63;;;;;;;11.21;100.00;96175.13;4910729;29;20758;-55
2022/09/26 01:58:10;;;;;;;4.00;3.60;;;;;;;11.21;100.00;96177.78;4908647;29;20263;-56
2022/09/26 02:00:38;;;;;;;4.30;4.00;;;;;;;11.22;100.00;96174.16;4908594;29;20284;-57
2022/09/26 02:03:09;;;;;;;3.50;3.30;;;;;;;11.24;100.00;96177.44;4914488;29;20303;-56
2022/09/26 02:05:40;;;;;;;4.13;3.73;;;;;;;11.28;100.00;96170.84;4916526;29;20193;-55
2022/09/26 02:08:10;;;;;;;4.23;3.93;;;;;;;11.26;100.00;96167.56;4907292;29;20208;-55
2022/09/26 02:10:41;;;;;;;4.87;4.00;;;;;;;11.33;100.00;96172.06;4905788;29;20630;-55
2022/09/26 02:13:11;;;;;;;4.33;4.03;;;;;;;11.30;100.00;96171.56;4906202;29;20295;-55
2022/09/26 02:15:39;;;;;;;4.20;3.80;;;;;;;11.30;100.00;96174.19;4906359;29;20602;-56
2022/09/26 02:18:13;;;;;;;4.03;3.73;;;;;;;11.26;100.00;96170.19;4906063;29;20657;-56
2022/09/26 02:20:44;;;;;;;4.10;3.70;;;;;;;11.31;100.00;96162.59;4906361;29;20208;-55
2022/09/26 02:23:11;;;;;;;4.57;4.17;;;;;;;11.34;100.00;96157.81;4906270;29;20583;-55
2022/09/26 02:25:38;;;;;;;4.27;3.97;;;;;;;11.35;100.00;96153.34;4905572;29;20222;-56
2022/09/26 02:28:05;;;;;;;4.10;3.80;;;;;;;11.36;100.00;96152.38;4905631;29;20294;-55
2022/09/26 02:30:31;;;;;;;4.97;4.43;;;;;;;11.37;100.00;96149.56;4906116;29;20287;-56
2022/09/26 02:32:58;;;;;;;4.03;3.70;;;;;;;11.38;100.00;96147.72;4906048;29;21488;-53
2022/09/26 02:38:11;;;;;;;4.13;3.80;;;;;;;11.41;100.00;96142.13;4905884;29;20315;-56
2022/09/26 02:40:42;;;;;;;4.10;3.80;;;;;;;11.40;100.00;96141.31;4905442;29;20223;-55
2022/09/26 02:43:24;;;;;;;4.30;3.77;;;;;;;11.43;100.00;96138.34;4906835;29;20208;-56
2022/09/26 02:45:57;;;;;;;4.47;4.07;;;;;;;11.45;100.00;96128.41;4905592;29;20232;-55
2022/09/26 02:48:36;;;;;;;4.23;3.93;;;;;;;11.45;100.00;96132.88;4906565;29;20291;-56
2022/09/26 02:51:12;;;;;;;4.60;4.30;;;;;;;11.44;100.00;96131.22;4906302;29;20339;-56
2022/09/26 02:53:57;;;;;;;4.67;4.27;;;;;;;11.45;100.00;96130.22;4910097;29;20205;-57
2022/09/26 02:56:29;;;;;;;4.40;4.00;;;;;;;11.46;100.00;96126.59;4928103;29;20207;-58
2022/09/26 02:59:03;;;;;;;4.70;4.30;;;;;;;11.44;100.00;96132.03;4923000;29;20208;-57
2022/09/26 03:01:32;;;;;;;4.37;4.07;;;;;;;11.46;100.00;96139.81;4919732;29;20223;-56
2022/09/26 03:04:03;;;;;;;4.87;4.47;;;;;;;11.43;100.00;96132.22;4914396;29;20287;-57
2022/09/26 03:06:34;;;;;;;4.50;4.10;;;;;;;11.47;100.00;96133.56;4906611;29;20219;-57
2022/09/26 03:09:02;;;;;;;4.37;4.07;;;;;;;11.47;100.00;96134.38;4905361;29;20893;-56
2022/09/26 03:11:30;;;;;;;4.80;4.50;;;;;;;11.46;100.00;96137.19;4910284;29;20216;-57
2022/09/26 03:13:58;;;;;;;4.47;4.13;;;;;;;11.45;100.00;96125.75;4911791;29;20219;-57
2022/09/26 03:16:28;;;;;;;4.90;4.50;;;;;;;11.46;100.00;96123.94;4910958;29;20581;-55
2022/09/26 03:18:56;;;;;;;4.57;4.27;;;;;;;11.49;100.00;96123.63;4923094;29;20303;-57
2022/09/26 03:21:23;;;;;;;4.77;4.47;;;;;;;11.48;100.00;96127.25;4921044;29;20284;-56
2022/09/26 03:23:51;;;;;;;4.90;4.50;;;;;;;11.47;100.00;96120.31;4918752;29;20685;-56
2022/09/26 03:26:20;;;;;;;5.93;4.90;;;;;;;11.48;100.00;96116.66;4913312;29;20287;-57
2022/09/26 03:28:47;;;;;;;5.43;4.93;;;;;;;11.49;100.00;96118.31;4909395;29;20216;-57
2022/09/26 03:31:14;;;;;;;5.70;4.97;;;;;;;11.51;100.00;96119.00;4909499;29;20666;-57
2022/09/26 03:33:41;;;;;;;6.20;5.00;;;;;;;11.49;100.00;96120.97;4909945;29;20585;-56
2022/09/26 03:36:09;;;;;;;5.17;4.80;;;;;;;11.51;100.00;96111.06;4909718;29;20548;-56
2022/09/26 03:38:36;;;;;;;5.43;5.00;;;;;;;11.53;100.00;96114.38;4909520;29;20228;-56
2022/09/26 03:41:04;;;;;;;5.50;5.00;;;;;;;11.53;100.00;96113.53;4909321;29;20208;-57
2022/09/26 03:43:30;;;;;;;4.93;4.53;;;;;;;11.51;100.00;96108.41;4908881;29;20204;-56
2022/09/26 03:45:57;;;;;;;5.07;4.67;;;;;;;11.55;100.00;96112.38;4909562;29;20624;-56
2022/09/26 03:48:24;;;;;;;6.73;6.13;;;;;;;11.56;100.00;96110.56;4908856;29;20983;-56
2022/09/26 03:50:50;;;;;;;7.60;7.00;;;;;;;11.55;100.00;96108.91;4909383;29;20216;-57
2022/09/26 03:53:17;;;;;;;5.70;5.20;;;;;;;11.51;100.00;96103.13;4909054;29;20302;-57
2022/09/26 03:55:45;;;;;;;4.80;4.50;;;;;;;11.54;100.00;96094.84;4909192;29;20384;-56
2022/09/26 03:58:13;;;;;;;6.33;5.10;;;;;;;11.58;100.00;96098.00;4910189;29;20231;-56
2022/09/26 04:00:40;;;;;;;6.00;5.50;;;;;;;11.57;100.00;96086.56;4908711;29;20251;-57
2022/09/26 04:03:06;;;;;;;5.00;4.50;;;;;;;11.59;100.00;96089.88;4907985;29;20312;-57
2022/09/26 04:05:33;;;;;;;5.27;4.87;;;;;;;11.59;100.00;96081.94;4908388;29;20204;-57
2022/09/26 04:08:01;;;;;;;5.60;5.10;;;;;;;11.60;100.00;96083.59;4909387;29;20215;-57
2022/09/26 04:10:28;;;;;;;5.23;4.77;;;;;;;11.63;100.00;96079.78;4908828;29;20208;-57
2022/09/26 04:12:55;;;;;;;5.53;5.13;;;;;;;11.62;100.00;96081.59;4908901;29;21403;-57
2022/09/26 04:15:23;;;;;;;5.13;4.73;;;;;;;11.65;100.00;96075.16;4909497;29;20204;-56
2022/09/26 04:17:50;;;;;;;5.40;4.90;;;;;;;11.59;100.00;96067.84;4908704;29;20323;-56
2022/09/26 04:20:17;;;;;;;5.23;4.83;;;;;;;11.56;100.00;96068.19;4908754;29;20322;-56
2022/09/26 04:22:44;;;;;;;5.77;5.37;;;;;;;11.62;100.00;96068.34;4908074;29;20294;-57
2022/09/26 04:25:11;;;;;;;5.43;4.93;;;;;;;11.65;100.00;96067.22;4908564;29;20656;-56
2022/09/26 04:27:38;;;;;;;5.23;4.87;;;;;;;11.63;100.00;96063.91;4908204;29;20315;-56
2022/09/26 04:30:05;;;;;;;5.50;5.00;;;;;;;11.60;100.00;96065.06;4908060;29;20197;-57
2022/09/26 04:32:33;;;;;;;7.03;5.07;;;;;;;11.60;100.00;96065.06;4908631;29;20287;-55
2022/09/26 04:35:00;;;;;;;5.67;5.07;;;;;;;11.61;100.00;96061.44;4908115;29;20287;-57
2022/09/26 04:37:26;;;;;;;6.30;5.70;;;;;;;11.59;100.00;96058.09;4909367;29;20212;-55
2022/09/26 04:39:53;;;;;;;5.20;4.87;;;;;;;11.65;100.00;96060.13;4908967;29;20336;-57
2022/09/26 04:42:20;;;;;;;5.27;4.87;;;;;;;11.65;100.00;96054.81;4908741;29;20260;-57
2022/09/26 04:44:47;;;;;;;5.50;5.10;;;;;;;11.65;100.00;96061.94;4909235;29;20267;-56
2022/09/26 04:47:13;;;;;;;5.60;5.10;;;;;;;11.62;100.00;96057.75;4908888;29;20299;-57
2022/09/26 04:49:41;;;;;;;4.80;4.50;;;;;;;11.64;100.00;96047.84;4908406;29;20311;-57
2022/09/26 04:52:08;;;;;;;6.10;5.43;;;;;;;11.63;100.00;96046.19;4908468;29;20214;-57
2022/09/26 04:54:36;;;;;;;8.37;5.23;;;;;;;11.61;100.00;96042.06;4908951;29;20303;-57
2022/09/26 04:57:03;;;;;;;5.10;4.60;;;;;;;11.58;100.00;96040.56;4908796;29;20214;-56
2022/09/26 04:59:29;;;;;;;4.70;4.40;;;;;;;11.55;100.00;96043.53;4907858;29;20263;-56
2022/09/26 05:01:56;;;;;;;5.47;5.07;;;;;;;11.51;100.00;96044.88;4907853;29;20639;-57
2022/09/26 05:04:23;;;;;;;5.43;4.93;;;;;;;11.49;100.00;96039.72;4907737;29;20268;-57
2022/09/26 05:06:54;;;;;;;5.40;4.90;;;;;;;11.57;100.00;96046.84;4907366;29;20240;-56
2022/09/26 05:09:20;;;;;;;4.70;4.40;;;;;;;11.58;100.00;96042.38;4908216;29;20283;-56
2022/09/26 05:11:47;;;;;;;5.40;4.90;;;;;;;11.61;100.00;96045.53;4907645;29;20240;-56
2022/09/26 05:14:13;;;;;;;5.00;4.60;;;;;;;11.63;100.00;96043.53;4907438;29;20288;-57
2022/09/26 05:16:40;;;;;;;4.80;4.40;;;;;;;11.57;100.00;96038.91;4910119;29;20208;-56
2022/09/26 05:19:07;;;;;;;5.10;4.70;;;;;;;11.56;100.00;96042.53;4931233;29;20208;-56
2022/09/26 05:21:34;;;;;;;4.70;4.30;;;;;;;11.52;100.00;96041.22;4927086;29;20256;-56
2022/09/26 05:26:48;;;;;;;5.30;4.80;;;;;;;11.53;100.00;96039.38;4918513;29;20207;-56
2022/09/26 05:29:15;;;;;;;4.80;4.50;;;;;;;11.53;100.00;96028.81;4908226;29;20228;-56
2022/09/26 05:31:42;;;;;;;4.63;4.23;;;;;;;11.55;100.00;96038.22;4908177;29;20239;-56
2022/09/26 05:34:11;;;;;;;5.27;4.87;;;;;;;11.59;100.00;96044.03;4907630;29;20216;-55
2022/09/26 05:36:38;;;;;;;5.63;5.07;;;;;;;11.64;100.00;96052.31;4910717;29;20264;-55
2022/09/26 05:40:55;;;;;;;5.13;4.63;;;;;;;11.59;100.00;96042.22;4926066;29;20223;-55
2022/09/26 05:41:53;;;;;;;4.90;4.50;;;;;;;11.55;100.00;96032.94;4918953;29;20708;-56
2022/09/26 05:44:19;;;;;;;5.03;4.63;;;;;;;11.56;100.00;96036.41;4910843;29;20248;-56
2022/09/26 05:46:47;;;;;;;5.40;4.90;;;;;;;11.58;100.00;96037.09;4926080;29;20233;-56
2022/09/26 05:49:13;;;;;;;5.07;4.67;;;;;;;11.59;100.00;96033.44;4929085;29;20276;-58
2022/09/26 05:51:40;;;;;;;5.27;4.77;;;;;;;11.57;100.00;96041.56;4912157;29;20240;-56
2022/09/26 05:54:09;;;;;;;5.00;4.60;;;;;;;11.56;100.00;96039.06;4907334;29;20296;-56
2022/09/26 05:56:36;;;;;;;5.63;5.23;;;;;;;11.59;100.00;96038.72;4906544;29;20216;-57
2022/09/26 05:59:03;;;;;;;5.80;5.40;;;;;;;11.59;100.00;96036.91;4906616;29;20232;-56
2022/09/26 06:01:30;;;;;;;5.83;5.30;;;;;;;11.59;100.00;96033.44;4906953;29;20294;-55
2022/09/26 06:03:57;;;;;;;5.50;5.00;;;;;;;11.61;100.00;96032.28;4907044;29;20208;-55
2022/09/26 06:06:24;;;;;;;5.20;4.80;;;;;;;11.64;100.00;96031.97;4907127;29;20219;-56
2022/09/26 06:08:50;;;;;;;5.80;5.27;;;;;;;11.62;100.00;96039.22;4906965;29;20318;-54
2022/09/26 06:11:23;;;;;;;5.80;5.40;;;;;;;11.67;100.00;96036.94;4906389;29;20310;-55
2022/09/26 06:13:50;;;;;;;5.73;5.23;;;;;;;11.69;100.00;96034.94;4906057;29;20260;-55
2022/09/26 06:16:19;;;;;;;5.50;5.10;;;;;;;11.75;100.00;96029.03;4906786;29;20203;-54
2022/09/26 06:18:46;;;;;;;5.30;4.90;;;;;;;11.81;100.00;96023.06;4905814;29;20212;-54
2022/09/26 06:21:15;;;;;;;5.87;5.47;;;;;;;11.84;100.00;96016.59;4906164;29;20291;-55
2022/09/26 06:23:42;;;;;;;6.37;5.77;;;;;;;11.86;100.00;96018.09;4906365;29;20556;-55
2022/09/26 06:26:11;;;;;;;7.07;6.37;;;;;;;11.90;100.00;96023.91;4907085;29;20213;-55
2022/09/26 06:28:39;;;;;;;7.13;6.43;;;;;;;12.03;100.00;96024.22;4906582;29;20208;-56
2022/09/26 06:31:09;;;;;;;7.13;6.53;;;;;;;12.08;100.00;96010.47;4906464;29;20308;-54
2022/09/26 06:33:36;;;;;;;7.10;6.50;;;;;;;12.04;100.00;96011.78;4905843;29;20310;-56
2022/09/26 06:36:04;;;;;;;6.83;6.13;;;;;;;12.12;100.00;96006.47;4906138;29;20222;-55
2022/09/26 06:38:30;;;;;;;6.40;5.90;;;;;;;12.34;100.00;96003.94;4905782;29;20209;-56
2022/09/26 06:40:57;;;;;;;6.30;5.80;;;;;;;12.55;100.00;96003.38;4906048;29;20318;-56
2022/09/26 06:43:24;;;;;;;8.70;7.90;;;;;;;12.68;100.00;96010.81;4905928;29;20283;-56
2022/09/26 06:45:52;;;;;;;8.70;7.73;;;;;;;12.77;100.00;96009.78;4905598;29;20243;-55
2022/09/26 06:48:21;;;;;;;7.37;6.77;;;;;;;12.77;100.00;96021.22;4906660;29;20212;-56
2022/09/26 06:50:51;;;;;;;7.33;6.73;;;;;;;12.76;100.00;96029.34;4905375;29;20264;-55
2022/09/26 06:53:18;;;;;;;7.17;6.57;;;;;;;12.84;100.00;96030.16;4905712;29;21579;-54
2022/09/26 06:55:45;;;;;;;7.37;6.67;;;;;;;12.84;100.00;96027.50;4905714;29;20303;-56
2022/09/26 06:58:11;;;;;;;6.87;6.27;;;;;;;12.76;100.00;96032.84;4905854;29;20204;-54
2022/09/26 07:00:38;;;;;;;6.00;5.60;;;;;;;12.63;100.00;96027.25;4905771;29;20236;-56
2022/09/26 07:03:07;;;;;;;6.50;5.90;;;;;;;12.60;100.00;96029.41;4906076;29;20209;-55
2022/09/26 07:05:34;;;;;;;7.97;7.27;;;;;;;12.55;100.00;96042.34;4906219;29;20218;-56
2022/09/26 07:08:00;;;;;;;9.87;9.07;;;;;;;12.60;100.00;96035.53;4905425;29;20284;-56
2022/09/26 07:10:29;;;;;;;7.73;7.03;;;;;;;12.60;100.00;96035.53;4905871;29;20240;-56
2022/09/26 07:13:01;;;;;;;6.70;6.20;;;;;;;12.66;100.00;96028.72;4905735;29;20209;-55
2022/09/26 07:15:29;;;;;;;7.20;6.50;;;;;;;12.56;100.00;96023.63;4906282;29;20214;-56
2022/09/26 07:18:00;;;;;;;7.50;6.80;;;;;;;12.59;100.00;96027.75;4905887;29;20642;-57
2022/09/26 07:20:30;;;;;;;8.20;7.47;;;;;;;12.63;100.00;96021.09;4904861;29;20208;-56
2022/09/26 07:22:57;;;;;;;8.47;7.67;;;;;;;12.64;100.00;96025.44;4905879;29;20214;-57
2022/09/26 07:25:24;;;;;;;7.67;7.07;;;;;;;12.71;100.00;96031.69;4906228;29;20209;-57
2022/09/26 07:27:51;;;;;;;7.07;6.47;;;;;;;12.76;100.00;96026.69;4906092;29;20239;-56
2022/09/26 07:30:19;;;;;;;7.63;7.03;;;;;;;12.79;100.00;96029.00;4905234;29;20738;-56
2022/09/26 07:32:46;;;;;;;8.63;7.80;;;;;;;12.81;100.00;96027.84;4905318;29;20208;-56
2022/09/26 07:35:14;;;;;;;8.40;7.60;;;;;;;12.79;100.00;96029.00;4904119;29;20212;-55
2022/09/26 07:37:43;;;;;;;7.67;7.07;;;;;;;12.77;100.00;96021.22;4905548;29;20216;-56
2022/09/26 07:40:10;;;;;;;7.23;6.63;;;;;;;12.73;100.00;96025.22;4906037;29;20320;-56
2022/09/26 07:42:37;;;;;;;7.30;6.70;;;;;;;12.71;100.00;96027.22;4916677;29;20204;-57
2022/09/26 07:45:05;;;;;;;7.60;6.90;;;;;;;12.64;100.00;96022.78;4921790;29;20228;-56
2022/09/26 07:50:17;;;;;;;7.57;6.83;;;;;;;12.67;100.00;96031.22;4911134;29;20557;-56
2022/09/26 07:52:47;;;;;;;7.00;6.30;;;;;;;12.74;100.00;96026.88;4910018;29;20247;-57
2022/09/26 07:55:15;;;;;;;7.43;6.70;;;;;;;12.82;100.00;96020.72;4908742;29;20303;-57
2022/09/26 07:57:42;;;;;;;6.80;6.20;;;;;;;12.92;100.00;96022.16;4909830;29;20281;-56
2022/09/26 08:00:11;;;;;;;6.53;6.03;;;;;;;12.97;100.00;96024.28;4909476;29;20288;-56
2022/09/26 08:02:41;;;;;;;6.37;5.67;;;;;;;13.05;100.00;96010.97;4908438;29;20582;-57
2022/09/26 08:05:09;;;;;;;6.43;5.93;;;;;;;13.09;100.00;96009.66;4910792;29;20220;-56
2022/09/26 08:07:36;;;;;;;6.23;5.73;;;;;;;13.18;100.00;96010.47;4913027;29;20663;-55
2022/09/26 08:10:06;;;;;;;7.00;6.50;;;;;;;13.19;100.00;96004.97;4910630;29;20212;-57
2022/09/26 08:12:35;;;;;;;6.77;6.17;;;;;;;13.29;100.00;96010.03;4910852;29;20218;-56
2022/09/26 08:15:03;;;;;;;6.40;5.80;;;;;;;13.30;100.00;96017.84;4910976;29;20226;-57
2022/09/26 08:17:31;;;;;;;5.60;5.20;;;;;;;13.37;100.00;96013.50;4914992;29;20205;-57
2022/09/26 08:19:58;;;;;;;6.67;6.17;;;;;;;13.45;100.00;96020.59;4913595;29;20563;-57
2022/09/26 08:22:24;;;;;;;6.43;5.83;;;;;;;13.43;100.00;96014.59;4910552;29;20243;-56
2022/09/26 08:24:52;;;;;;;6.03;5.50;;;;;;;13.49;100.00;96016.59;4911294;29;20251;-56
2022/09/26 08:27:21;;;;;;;7.13;6.20;;;;;;;13.53;100.00;96017.88;4910270;29;20204;-57
2022/09/26 08:29:49;;;;;;;5.73;5.30;;;;;;;13.60;100.00;96016.19;4909136;29;20205;-56
2022/09/26 08:32:16;;;;;;;6.37;5.87;;;;;;;13.69;100.00;96020.41;4908431;29;20205;-57
2022/09/26 08:34:43;;;;;;;6.20;5.63;;;;;;;13.77;100.00;96016.88;4907894;29;20212;-57
2022/09/26 08:37:10;;;;;;;5.67;5.27;;;;;;;13.86;100.00;96019.28;4908506;29;20292;-57
2022/09/26 08:39:38;;;;;;;6.63;6.03;;;;;;;13.83;100.00;96016.16;4908277;29;20674;-54
2022/09/26 08:42:16;;;;;;;6.67;5.17;;;;;;;13.81;100.00;96015.53;4908983;29;20207;-56
2022/09/26 08:46:26;;;;;;;5.27;4.87;;;;;;;13.86;100.00;96015.78;4908315;29;20547;-57
2022/09/26 08:48:01;;;;;;;6.97;5.27;;;;;;;13.87;100.00;96018.28;4908128;29;20200;-55
2022/09/26 08:50:35;;;;;;;5.63;5.10;;;;;;;13.90;100.00;96009.13;4908369;29;20271;-56
2022/09/26 08:53:06;;;;;;;5.33;4.90;;;;;;;13.88;100.00;96017.28;4907130;29;20207;-57
2022/09/26 08:55:36;;;;;;;5.27;4.77;;;;;;;13.82;100.00;96017.97;4908090;29;20201;-56
2022/09/26 08:58:04;;;;;;;5.33;4.93;;;;;;;13.85;100.00;96020.28;4907718;29;20204;-56
2022/09/26 09:00:33;;;;;;;4.83;4.43;;;;;;;13.87;100.00;96015.63;4907740;29;20233;-57
2022/09/26 09:03:07;;;;;;;5.30;4.80;;;;;;;13.81;99.86;96011.03;4907473;29;20287;-55
2022/09/26 09:05:37;;;;;;;4.30;4.00;;;;;;;13.89;100.00;96008.28;4908160;29;20208;-56
2022/09/26 09:08:09;;;;;;;4.83;4.50;;;;;;;13.91;100.00;96011.63;4907526;29;20207;-58
2022/09/26 09:10:44;;;;;;;4.67;4.27;;;;;;;13.96;100.00;96009.22;4907738;29;20236;-56
2022/09/26 09:13:22;;;;;;;4.13;3.83;;;;;;;14.16;100.00;96004.25;4909675;29;20272;-57
2022/09/26 09:16:05;;;;;;;3.93;3.63;;;;;;;14.55;98.85;96008.53;4907812;29;20290;-57
2022/09/26 09:18:38;;;;;;;4.83;4.43;;;;;;;14.83;95.12;96012.22;4908005;29;21433;-56
2022/09/26 09:21:13;;;;;;;4.93;4.53;;;;;;;14.91;91.58;96010.25;4919527;29;20228;-56
2022/09/26 09:23:56;;;;;;;4.93;4.53;;;;;;;14.90;95.97;96000.66;4932218;29;20195;-55
2022/09/26 09:26:27;;;;;;;5.17;4.27;;;;;;;14.96;96.05;95996.41;4907386;29;20299;-56
2022/09/26 09:29:07;;;;;;;4.97;4.47;;;;;;;15.02;94.24;95982.34;4923462;29;20228;-56
2022/09/26 09:31:38;;;;;;;4.53;3.67;;;;;;;15.41;95.95;96000.59;4924532;29;20268;-57
2022/09/26 09:34:08;;;;;;;5.43;4.43;;;;;;;15.65;89.62;95991.47;4917096;29;20233;-56
2022/09/26 09:36:39;;;;;;;4.47;4.17;;;;;;;15.82;87.70;95993.69;4907042;29;20582;-56
2022/09/26 09:39:08;;;;;;;4.47;4.17;;;;;;;15.72;89.95;95981.72;4907322;29;20238;-57
2022/09/26 09:41:38;;;;;;;5.10;4.70;;;;;;;15.71;80.43;95986.22;4906502;29;20402;-56
2022/09/26 09:44:25;;;;;;;4.53;4.23;;;;;;;15.49;81.95;95987.22;4906503;29;20578;-56
2022/09/26 09:46:53;;;;;;;4.90;4.50;;;;;;;15.13;82.70;95973.03;4907520;29;20283;-57
2022/09/26 09:49:21;;;;;;;4.47;4.17;;;;;;;14.94;88.38;95975.31;4907385;29;20251;-55
2022/09/26 09:52:02;;;;;;;4.67;4.37;;;;;;;14.87;91.54;95966.41;4906549;29;20343;-57
2022/09/26 09:54:35;;;;;;;4.63;4.30;;;;;;;14.85;91.42;95963.09;4906773;29;20298;-55
2022/09/26 09:57:28;;;;;;;4.33;4.03;;;;;;;14.79;87.65;95965.66;4907019;29;20208;-57
2022/09/26 10:00:10;;;;;;;4.87;4.00;;;;;;;14.55;89.44;95950.84;4918364;29;20200;-57
2022/09/26 10:02:42;;;;;;;4.13;3.83;;;;;;;14.41;93.80;95943.69;4927129;29;20183;-56
2022/09/26 10:05:24;;;;;;;4.60;4.20;;;;;;;14.35;91.54;95944.41;4929826;29;20200;-56
2022/09/26 10:07:56;;;;;;;5.23;4.73;;;;;;;14.31;91.00;95949.22;4916774;29;20656;-55
2022/09/26 10:10:28;;;;;;;4.83;4.43;;;;;;;14.31;89.87;95943.91;4907135;29;20189;-57
2022/09/26 10:12:56;;;;;;;3.90;3.60;;;;;;;14.20;90.03;95943.56;4906551;29;20204;-55
2022/09/26 10:15:26;;;;;;;4.57;4.17;;;;;;;14.05;93.24;95943.53;4907087;29;20207;-57
2022/09/26 10:18:02;;;;;;;4.27;3.97;;;;;;;13.92;99.15;95944.13;4906971;29;20204;-56
2022/09/26 10:20:42;;;;;;;4.50;4.20;;;;;;;13.85;100.00;95947.72;4906201;29;20322;-56
2022/09/26 10:23:12;;;;;;;4.83;4.53;;;;;;;13.80;100.00;95940.28;4906914;29;20287;-56
2022/09/26 10:25:46;;;;;;;4.27;3.97;;;;;;;13.78;100.00;95941.47;4906083;29;20256;-56
2022/09/26 10:28:24;;;;;;;4.40;4.10;;;;;;;13.77;100.00;95940.66;4906834;29;20604;-56
2022/09/26 10:30:51;;;;;;;6.20;4.60;;;;;;;13.79;100.00;95943.94;4907233;29;20204;-57
2022/09/26 10:33:26;;;;;;;5.50;5.10;;;;;;;13.57;100.00;95938.66;4907848;29;20316;-56
2022/09/26 10:36:03;;;;;;;5.43;4.93;;;;;;;13.58;100.00;95938.47;4908076;29;20596;-56
2022/09/26 10:38:30;;;;;;;4.37;4.07;;;;;;;13.53;97.97;95935.53;4908325;29;20246;-55
2022/09/26 10:40:58;;;;;;;4.10;3.70;;;;;;;13.43;100.00;95932.28;4907803;29;20319;-56
2022/09/26 10:43:29;;;;;;;4.10;3.70;;;;;;;13.32;100.00;95930.06;4908744;29;20204;-57
2022/09/26 10:46:02;;;;;;;4.93;4.53;;;;;;;13.39;100.00;95926.50;4909433;29;20284;-54
2022/09/26 10:48:41;;;;;;;4.67;4.27;;;;;;;13.31;100.00;95923.91;4908063;29;20762;-56
2022/09/26 10:51:08;;;;;;;4.90;4.17;;;;;;;13.46;100.00;95926.63;4906379;29;20547;-56
2022/09/26 10:53:37;;;;;;;4.03;3.73;;;;;;;14.00;100.00;95913.16;4906050;29;20213;-56
2022/09/26 10:56:08;;;;;;;4.50;4.10;;;;;;;14.38;100.00;95906.81;4905742;29;20291;-57
2022/09/26 10:58:39;;;;;;;4.30;4.00;;;;;;;15.02;100.00;95902.44;4906159;29;20272;-55
2022/09/26 11:01:06;;;;;;;4.70;4.17;;;;;;;15.20;100.00;95897.53;4905593;29;20560;-57
2022/09/26 11:03:42;;;;;;;4.47;4.07;;;;;;;15.30;100.00;95891.91;4905596;29;20219;-56
2022/09/26 11:06:22;;;;;;;3.80;3.50;;;;;;;15.48;99.79;95894.13;4905816;29;20290;-55
2022/09/26 11:08:52;;;;;;;3.73;3.43;;;;;;;15.83;95.19;95894.03;4906153;29;20295;-57
2022/09/26 11:11:20;;;;;;;3.80;3.50;;;;;;;16.15;89.60;95881.13;4905741;29;20296;-55
2022/09/26 11:13:48;;;;;;;2.80;2.70;;;;;;;16.46;87.29;95878.84;4906389;29;20210;-56
2022/09/26 11:16:17;;;;;;;3.55;2.80;;;;;;;16.80;84.16;95870.78;4905622;29;20208;-57
2022/09/26 11:18:55;;;;;;;3.08;2.47;;;;;;;17.21;82.40;95868.03;4905218;29;20200;-56
2022/09/26 11:21:26;;;;;;;4.97;2.90;;;;;;;17.56;79.19;95862.53;4905180;29;20208;-56
2022/09/26 11:24:01;;;;;;;2.53;2.33;;;;;;;17.53;73.82;95855.75;4905136;29;20649;-55
2022/09/26 11:26:33;;;;;;;2.90;2.70;;;;;;;17.76;72.05;95842.78;4905274;29;20294;-57
2022/09/26 11:29:07;;;;;;;2.70;2.42;;;;;;;17.94;73.50;95831.47;4905399;29;20223;-58
2022/09/26 11:31:36;;;;;;;2.38;2.17;;;;;;;18.30;72.44;95839.00;4905915;29;20219;-57
2022/09/26 11:34:06;;;;;;;2.53;2.42;;;;;;;18.48;70.64;95832.97;4905082;29;20263;-57
2022/09/26 11:36:55;;;;;;;2.60;2.40;;;;;;;18.65;67.57;95829.63;4905271;29;20208;-57
2022/09/26 11:39:34;;;;;;;2.40;2.30;;;;;;;18.62;64.68;95829.25;4909418;29;20219;-58
2022/09/26 11:42:13;;;;;;;2.50;2.40;;;;;;;18.72;62.40;95819.72;4908731;29;20612;-57
2022/09/26 11:44:53;;;;;;;2.42;2.22;;;;;;;18.87;61.79;95817.59;4908315;29;20595;-58
2022/09/26 11:48:01;;;;;;;2.80;2.50;;;;;;;19.01;59.24;95812.13;4909177;29;20270;-59
2022/09/26 11:50:39;;;;;;;2.58;2.47;;;;;;;18.71;61.59;95807.34;4908347;29;20306;-57